< Typhoon 200301 2003 Season Typhoon 200303 >
Typhoon 200302 (KUJIRA)
General InformationTrack Information on Google MapsDetailed Wind InformationList of All Images || Disaster Info.WeblogResourceGoogle EarthGE AnimationAtom FeedGeoJSON
Detalied Best Track (Time Zone = UTC)
Year Month Day Hour Lat. Long. Pressure (hPa) Wind (kt) Class Image Chart
2003 4 9 00 4.1 159.9 1008 0 2 Image Chart
2003 4 9 06 4.3 160.1 1006 0 2 Image Chart
2003 4 9 12 5.6 160.3 1006 0 2 Image Chart
2003 4 9 18 6.4 160.1 1004 0 2 Image Chart
2003 4 10 00 6.7 160.1 1004 0 2 Image Chart
2003 4 10 06 7.7 159.7 1004 0 2 Image Chart
2003 4 10 12 8.0 158.9 1004 0 2 Image Chart
2003 4 10 18 8.6 158.0 1004 0 2 Image Chart
2003 4 11 00 9.0 157.4 1002 35 3 Image Chart
2003 4 11 06 9.5 156.4 1000 35 3 Image Chart
2003 4 11 12 9.8 155.6 996 35 3 Image Chart
2003 4 11 18 9.8 155.2 996 35 3 Image Chart
2003 4 12 00 9.9 154.1 992 40 3 Image Chart
2003 4 12 06 10.0 153.0 990 45 3 Image Chart
2003 4 12 12 10.1 152.3 990 45 3 Image Chart
2003 4 12 18 10.1 151.5 985 50 4 Image Chart
2003 4 13 00 10.0 150.7 980 55 4 Image Chart
2003 4 13 06 10.1 149.8 980 55 4 Image Chart
2003 4 13 12 10.0 149.1 980 55 4 Image Chart
2003 4 13 18 10.4 148.3 975 60 4 Image Chart
2003 4 14 00 10.4 147.3 965 70 5 Image Chart
2003 4 14 06 10.6 146.2 960 75 5 Image Chart
2003 4 14 12 10.8 145.1 950 80 5 Image Chart
2003 4 14 18 11.2 143.8 945 80 5 Image Chart
2003 4 15 00 11.5 142.3 945 80 5 Image Chart
2003 4 15 06 11.9 140.9 945 80 5 Image Chart
2003 4 15 12 12.3 139.5 940 85 5 Image Chart
2003 4 15 18 12.7 138.3 930 90 5 Image Chart
2003 4 16 00 13.1 137.0 930 90 5 Image Chart
2003 4 16 06 13.5 136.0 930 90 5 Image Chart
2003 4 16 12 13.7 135.2 935 85 5 Image Chart
2003 4 16 18 13.9 134.4 935 85 5 Image Chart
2003 4 17 00 13.9 133.8 940 85 5 Image Chart
2003 4 17 06 13.8 132.9 940 85 5 Image Chart
2003 4 17 12 13.7 132.2 945 85 5 Image Chart
2003 4 17 18 13.6 131.4 945 85 5 Image Chart
2003 4 18 00 13.5 130.6 940 85 5 Image Chart
2003 4 18 06 13.5 130.0 940 85 5 Image Chart
2003 4 18 12 13.7 129.6 945 80 5 Image Chart
2003 4 18 18 13.9 129.1 945 80 5 Image Chart
2003 4 19 00 14.1 128.8 945 80 5 Image Chart
2003 4 19 06 14.6 128.3 945 80 5 Image Chart
2003 4 19 12 15.1 127.9 950 80 5 Image Chart
2003 4 19 18 15.7 127.2 950 75 5 Image Chart
2003 4 20 00 16.2 126.8 955 75 5 Image Chart
2003 4 20 06 16.8 126.0 955 75 5 Image Chart
2003 4 20 12 17.2 125.7 950 80 5 Image Chart
2003 4 20 18 18.0 125.2 950 80 5 Image Chart
2003 4 21 00 18.3 124.6 950 80 5 Image Chart
2003 4 21 06 18.8 124.4 955 75 5 Image Chart
2003 4 21 12 19.2 124.2 955 70 5 Image Chart
2003 4 21 18 19.6 124.1 960 70 5 Image Chart
2003 4 22 00 20.2 124.0 975 55 4 Image Chart
2003 4 22 06 20.4 123.4 980 55 4 Image Chart
2003 4 22 12 20.6 123.1 985 50 4 Image Chart
2003 4 22 18 20.7 123.0 990 45 3 Image Chart
2003 4 23 00 20.7 122.5 994 45 3 Image Chart
2003 4 23 06 20.8 122.4 994 45 3 Image Chart
2003 4 23 12 21.0 122.4 994 45 3 Image Chart
2003 4 23 18 21.3 122.3 994 45 3 Image Chart
2003 4 24 00 22.0 122.7 994 45 3 Image Chart
2003 4 24 06 23.2 123.0 994 45 3 Image Chart
2003 4 24 12 24.8 123.9 994 45 3 Image Chart
2003 4 24 18 26.8 125.3 996 40 3 Image Chart
2003 4 25 00 29.3 127.2 998 35 3 Image Chart
2003 4 25 03 30.6 128.6 1000 0 2 Image Chart
2003 4 25 06 32.1 129.9 1000 0 2 Image Chart
Japan Meteorological Agency Best Track Data | Correction Date : 2004-02-17
< Typhoon 200301 2003 Season Typhoon 200303 >

Help